sensor_id;sensor_type;location;lat;lon;timestamp;temperature;humidity
16970;DHT22;8601;48.718;8.992;2023-07-22T00:00:37;14.10;99.90
16970;DHT22;8601;48.718;8.992;2023-07-22T00:03:06;14.00;99.90
16970;DHT22;8601;48.718;8.992;2023-07-22T00:05:32;13.90;99.90
16970;DHT22;8601;48.718;8.992;2023-07-22T00:07:59;13.80;99.90
16970;DHT22;8601;48.718;8.992;2023-07-22T00:10:26;13.80;99.90
16970;DHT22;8601;48.718;8.992;2023-07-22T00:12:53;13.80;99.90
16970;DHT22;8601;48.718;8.992;2023-07-22T00:15:20;13.80;99.90
16970;DHT22;8601;48.718;8.992;2023-07-22T00:17:49;13.80;99.90
16970;DHT22;8601;48.718;8.992;2023-07-22T00:20:18;13.80;99.90
16970;DHT22;8601;48.718;8.992;2023-07-22T00:22:47;13.90;99.90
16970;DHT22;8601;48.718;8.992;2023-07-22T00:25:16;14.00;99.90
16970;DHT22;8601;48.718;8.992;2023-07-22T00:27:42;14.00;99.90
16970;DHT22;8601;48.718;8.992;2023-07-22T00:30:10;14.00;99.90
16970;DHT22;8601;48.718;8.992;2023-07-22T00:32:37;14.10;99.90
16970;DHT22;8601;48.718;8.992;2023-07-22T00:35:07;14.10;99.90
16970;DHT22;8601;48.718;8.992;2023-07-22T00:37:36;14.10;99.90
16970;DHT22;8601;48.718;8.992;2023-07-22T00:40:03;14.10;99.90
16970;DHT22;8601;48.718;8.992;2023-07-22T00:42:31;14.20;99.90
16970;DHT22;8601;48.718;8.992;2023-07-22T00:44:58;14.20;99.90
16970;DHT22;8601;48.718;8.992;2023-07-22T00:47:25;14.20;99.90
16970;DHT22;8601;48.718;8.992;2023-07-22T00:49:52;14.20;99.90
16970;DHT22;8601;48.718;8.992;2023-07-22T00:52:19;14.80;99.90
16970;DHT22;8601;48.718;8.992;2023-07-22T00:54:48;14.60;99.90
16970;DHT22;8601;48.718;8.992;2023-07-22T00:57:15;14.50;99.90
16970;DHT22;8601;48.718;8.992;2023-07-22T00:59:44;14.40;99.90
16970;DHT22;8601;48.718;8.992;2023-07-22T01:02:11;14.30;99.90
16970;DHT22;8601;48.718;8.992;2023-07-22T01:04:38;14.20;99.90
16970;DHT22;8601;48.718;8.992;2023-07-22T01:07:06;14.20;99.90
16970;DHT22;8601;48.718;8.992;2023-07-22T01:09:36;14.20;99.90
16970;DHT22;8601;48.718;8.992;2023-07-22T01:12:06;14.10;99.90
16970;DHT22;8601;48.718;8.992;2023-07-22T01:14:33;14.10;99.90
16970;DHT22;8601;48.718;8.992;2023-07-22T01:17:00;14.10;99.90
16970;DHT22;8601;48.718;8.992;2023-07-22T01:19:28;14.00;99.90
16970;DHT22;8601;48.718;8.992;2023-07-22T01:21:57;13.80;99.90
16970;DHT22;8601;48.718;8.992;2023-07-22T01:24:25;13.70;99.90
16970;DHT22;8601;48.718;8.992;2023-07-22T01:26:52;13.70;99.90
16970;DHT22;8601;48.718;8.992;2023-07-22T01:29:21;13.70;99.90
16970;DHT22;8601;48.718;8.992;2023-07-22T01:31:51;13.70;99.90
16970;DHT22;8601;48.718;8.992;2023-07-22T01:34:18;13.70;99.90
16970;DHT22;8601;48.718;8.992;2023-07-22T01:36:45;13.70;99.90
16970;DHT22;8601;48.718;8.992;2023-07-22T01:39:13;13.70;99.90
16970;DHT22;8601;48.718;8.992;2023-07-22T01:41:41;13.60;99.90
16970;DHT22;8601;48.718;8.992;2023-07-22T01:44:08;13.60;99.90
16970;DHT22;8601;48.718;8.992;2023-07-22T01:46:35;13.60;99.90
16970;DHT22;8601;48.718;8.992;2023-07-22T01:49:06;13.60;99.90
16970;DHT22;8601;48.718;8.992;2023-07-22T01:51:34;13.50;99.90
16970;DHT22;8601;48.718;8.992;2023-07-22T01:54:03;13.60;99.90
16970;DHT22;8601;48.718;8.992;2023-07-22T01:56:30;13.60;99.90
16970;DHT22;8601;48.718;8.992;2023-07-22T01:59:06;13.60;99.90
16970;DHT22;8601;48.718;8.992;2023-07-22T02:01:34;13.60;99.90
16970;DHT22;8601;48.718;8.992;2023-07-22T02:04:00;13.60;99.90
16970;DHT22;8601;48.718;8.992;2023-07-22T02:06:27;13.60;99.90
16970;DHT22;8601;48.718;8.992;2023-07-22T02:08:54;13.50;99.90
16970;DHT22;8601;48.718;8.992;2023-07-22T02:11:22;13.50;99.90
16970;DHT22;8601;48.718;8.992;2023-07-22T02:13:49;13.40;99.90
16970;DHT22;8601;48.718;8.992;2023-07-22T02:16:17;13.40;99.90
16970;DHT22;8601;48.718;8.992;2023-07-22T02:18:44;13.30;99.90
16970;DHT22;8601;48.718;8.992;2023-07-22T02:21:13;13.20;99.90
16970;DHT22;8601;48.718;8.992;2023-07-22T02:23:39;13.30;99.90
16970;DHT22;8601;48.718;8.992;2023-07-22T02:26:07;13.40;99.90
16970;DHT22;8601;48.718;8.992;2023-07-22T02:28:34;13.40;99.90
16970;DHT22;8601;48.718;8.992;2023-07-22T02:31:02;13.30;99.90
16970;DHT22;8601;48.718;8.992;2023-07-22T02:33:33;13.30;99.90
16970;DHT22;8601;48.718;8.992;2023-07-22T02:36:00;13.10;99.90
16970;DHT22;8601;48.718;8.992;2023-07-22T02:38:27;13.20;99.90
16970;DHT22;8601;48.718;8.992;2023-07-22T02:40:54;13.10;99.90
16970;DHT22;8601;48.718;8.992;2023-07-22T02:43:21;13.20;99.90
16970;DHT22;8601;48.718;8.992;2023-07-22T02:45:48;13.20;99.90
16970;DHT22;8601;48.718;8.992;2023-07-22T02:48:15;13.30;99.90
16970;DHT22;8601;48.718;8.992;2023-07-22T02:50:43;13.30;99.90
16970;DHT22;8601;48.718;8.992;2023-07-22T02:53:10;13.40;99.90
16970;DHT22;8601;48.718;8.992;2023-07-22T02:55:37;13.40;99.90
16970;DHT22;8601;48.718;8.992;2023-07-22T02:58:04;13.40;99.90
16970;DHT22;8601;48.718;8.992;2023-07-22T03:00:31;13.40;99.90
16970;DHT22;8601;48.718;8.992;2023-07-22T03:02:58;13.40;99.90
16970;DHT22;8601;48.718;8.992;2023-07-22T03:05:26;13.40;99.90
16970;DHT22;8601;48.718;8.992;2023-07-22T03:07:55;13.40;99.90
16970;DHT22;8601;48.718;8.992;2023-07-22T03:10:22;13.50;99.90
16970;DHT22;8601;48.718;8.992;2023-07-22T03:12:51;13.50;99.90
16970;DHT22;8601;48.718;8.992;2023-07-22T03:15:21;13.40;99.90
16970;DHT22;8601;48.718;8.992;2023-07-22T03:17:47;13.50;99.90
16970;DHT22;8601;48.718;8.992;2023-07-22T03:20:14;13.50;99.90
16970;DHT22;8601;48.718;8.992;2023-07-22T03:22:44;13.50;99.90
16970;DHT22;8601;48.718;8.992;2023-07-22T03:25:14;13.40;99.90
16970;DHT22;8601;48.718;8.992;2023-07-22T03:27:43;13.40;99.90
16970;DHT22;8601;48.718;8.992;2023-07-22T03:30:12;13.30;99.90
16970;DHT22;8601;48.718;8.992;2023-07-22T03:32:40;13.20;99.90
16970;DHT22;8601;48.718;8.992;2023-07-22T03:35:07;13.20;99.90
16970;DHT22;8601;48.718;8.992;2023-07-22T03:37:35;13.30;99.90
16970;DHT22;8601;48.718;8.992;2023-07-22T03:40:03;13.30;99.90
16970;DHT22;8601;48.718;8.992;2023-07-22T03:42:34;13.20;99.90
16970;DHT22;8601;48.718;8.992;2023-07-22T03:45:01;13.30;99.90
16970;DHT22;8601;48.718;8.992;2023-07-22T03:47:27;13.30;99.90
16970;DHT22;8601;48.718;8.992;2023-07-22T03:49:55;13.20;99.90
16970;DHT22;8601;48.718;8.992;2023-07-22T03:52:23;13.20;99.90
16970;DHT22;8601;48.718;8.992;2023-07-22T03:54:50;13.20;99.90
16970;DHT22;8601;48.718;8.992;2023-07-22T03:57:17;13.20;99.90
16970;DHT22;8601;48.718;8.992;2023-07-22T03:59:45;13.10;99.90
16970;DHT22;8601;48.718;8.992;2023-07-22T04:02:12;13.10;99.90
16970;DHT22;8601;48.718;8.992;2023-07-22T04:04:39;13.10;99.90
16970;DHT22;8601;48.718;8.992;2023-07-22T04:07:06;13.10;99.90
16970;DHT22;8601;48.718;8.992;2023-07-22T04:09:33;13.10;99.90
16970;DHT22;8601;48.718;8.992;2023-07-22T04:12:01;13.10;99.90
16970;DHT22;8601;48.718;8.992;2023-07-22T04:14:28;13.00;99.90
16970;DHT22;8601;48.718;8.992;2023-07-22T04:16:56;12.90;99.90
16970;DHT22;8601;48.718;8.992;2023-07-22T04:19:23;12.90;99.90
16970;DHT22;8601;48.718;8.992;2023-07-22T04:21:50;13.00;99.90
16970;DHT22;8601;48.718;8.992;2023-07-22T04:24:18;13.10;99.90
16970;DHT22;8601;48.718;8.992;2023-07-22T04:26:45;13.00;99.90
16970;DHT22;8601;48.718;8.992;2023-07-22T04:29:12;13.00;99.90
16970;DHT22;8601;48.718;8.992;2023-07-22T04:31:39;13.00;99.90
16970;DHT22;8601;48.718;8.992;2023-07-22T04:34:07;13.00;99.90
16970;DHT22;8601;48.718;8.992;2023-07-22T04:36:34;13.00;99.90
16970;DHT22;8601;48.718;8.992;2023-07-22T04:39:02;13.00;99.90
16970;DHT22;8601;48.718;8.992;2023-07-22T04:41:30;13.10;99.90
16970;DHT22;8601;48.718;8.992;2023-07-22T04:43:57;13.10;99.90
16970;DHT22;8601;48.718;8.992;2023-07-22T04:46:24;13.20;99.90
16970;DHT22;8601;48.718;8.992;2023-07-22T04:48:53;13.20;99.90
16970;DHT22;8601;48.718;8.992;2023-07-22T04:51:22;13.30;99.90
16970;DHT22;8601;48.718;8.992;2023-07-22T04:53:49;13.30;99.90
16970;DHT22;8601;48.718;8.992;2023-07-22T04:56:16;13.30;99.90
16970;DHT22;8601;48.718;8.992;2023-07-22T04:58:42;13.30;99.90
16970;DHT22;8601;48.718;8.992;2023-07-22T05:01:10;13.20;99.90
16970;DHT22;8601;48.718;8.992;2023-07-22T05:03:37;13.20;99.90
16970;DHT22;8601;48.718;8.992;2023-07-22T05:06:06;13.20;99.90
16970;DHT22;8601;48.718;8.992;2023-07-22T05:08:35;13.20;99.90
16970;DHT22;8601;48.718;8.992;2023-07-22T05:11:03;13.20;99.90
16970;DHT22;8601;48.718;8.992;2023-07-22T05:13:30;13.20;99.90
16970;DHT22;8601;48.718;8.992;2023-07-22T05:15:57;13.30;99.90
16970;DHT22;8601;48.718;8.992;2023-07-22T05:18:24;13.30;99.90
16970;DHT22;8601;48.718;8.992;2023-07-22T05:20:51;13.20;99.90
16970;DHT22;8601;48.718;8.992;2023-07-22T05:23:18;13.30;99.90
16970;DHT22;8601;48.718;8.992;2023-07-22T05:25:51;13.30;99.90
16970;DHT22;8601;48.718;8.992;2023-07-22T05:28:19;13.40;99.90
16970;DHT22;8601;48.718;8.992;2023-07-22T05:30:46;13.40;99.90
16970;DHT22;8601;48.718;8.992;2023-07-22T05:33:13;13.50;99.90
16970;DHT22;8601;48.718;8.992;2023-07-22T05:35:40;13.60;99.90
16970;DHT22;8601;48.718;8.992;2023-07-22T05:38:07;13.60;99.90
16970;DHT22;8601;48.718;8.992;2023-07-22T05:40:34;13.70;99.90
16970;DHT22;8601;48.718;8.992;2023-07-22T05:43:02;13.80;99.90
16970;DHT22;8601;48.718;8.992;2023-07-22T05:45:29;13.90;99.90
16970;DHT22;8601;48.718;8.992;2023-07-22T05:47:56;14.00;99.90
16970;DHT22;8601;48.718;8.992;2023-07-22T05:50:23;14.10;99.90
16970;DHT22;8601;48.718;8.992;2023-07-22T05:52:51;14.10;99.90
16970;DHT22;8601;48.718;8.992;2023-07-22T05:55:17;14.20;99.90
16970;DHT22;8601;48.718;8.992;2023-07-22T05:57:44;14.20;99.90
16970;DHT22;8601;48.718;8.992;2023-07-22T06:00:13;14.30;99.90
16970;DHT22;8601;48.718;8.992;2023-07-22T06:02:40;14.30;99.90
16970;DHT22;8601;48.718;8.992;2023-07-22T06:05:08;14.30;99.90
16970;DHT22;8601;48.718;8.992;2023-07-22T06:07:35;14.50;99.90
16970;DHT22;8601;48.718;8.992;2023-07-22T06:10:02;14.50;99.90
16970;DHT22;8601;48.718;8.992;2023-07-22T06:12:29;14.60;99.90
16970;DHT22;8601;48.718;8.992;2023-07-22T06:14:56;14.70;99.90
16970;DHT22;8601;48.718;8.992;2023-07-22T06:17:24;14.80;99.90
16970;DHT22;8601;48.718;8.992;2023-07-22T06:19:51;14.80;99.90
16970;DHT22;8601;48.718;8.992;2023-07-22T06:22:19;14.90;99.90
16970;DHT22;8601;48.718;8.992;2023-07-22T06:24:46;15.00;99.90
16970;DHT22;8601;48.718;8.992;2023-07-22T06:27:13;15.10;99.90
16970;DHT22;8601;48.718;8.992;2023-07-22T06:29:39;15.20;99.90
16970;DHT22;8601;48.718;8.992;2023-07-22T06:32:07;15.40;99.90
16970;DHT22;8601;48.718;8.992;2023-07-22T06:34:35;15.50;99.90
16970;DHT22;8601;48.718;8.992;2023-07-22T06:37:02;15.60;99.90
16970;DHT22;8601;48.718;8.992;2023-07-22T06:39:30;15.60;99.90
16970;DHT22;8601;48.718;8.992;2023-07-22T06:41:56;15.80;99.90
16970;DHT22;8601;48.718;8.992;2023-07-22T06:44:24;15.80;99.90
16970;DHT22;8601;48.718;8.992;2023-07-22T06:46:51;15.90;99.90
16970;DHT22;8601;48.718;8.992;2023-07-22T06:49:18;16.00;99.90
16970;DHT22;8601;48.718;8.992;2023-07-22T06:51:46;16.10;99.90
16970;DHT22;8601;48.718;8.992;2023-07-22T06:54:13;16.20;99.90
16970;DHT22;8601;48.718;8.992;2023-07-22T06:56:40;16.30;99.90
16970;DHT22;8601;48.718;8.992;2023-07-22T06:59:07;16.40;99.90
16970;DHT22;8601;48.718;8.992;2023-07-22T07:01:34;16.50;99.90
16970;DHT22;8601;48.718;8.992;2023-07-22T07:04:01;16.60;99.90
16970;DHT22;8601;48.718;8.992;2023-07-22T07:06:28;16.60;99.90
16970;DHT22;8601;48.718;8.992;2023-07-22T07:08:59;16.70;99.90
16970;DHT22;8601;48.718;8.992;2023-07-22T07:11:26;16.80;99.90
16970;DHT22;8601;48.718;8.992;2023-07-22T07:13:53;16.90;99.90
16970;DHT22;8601;48.718;8.992;2023-07-22T07:16:20;16.90;99.90
16970;DHT22;8601;48.718;8.992;2023-07-22T07:18:49;17.00;99.90
16970;DHT22;8601;48.718;8.992;2023-07-22T07:21:16;17.10;99.90
16970;DHT22;8601;48.718;8.992;2023-07-22T07:23:43;17.20;99.90
16970;DHT22;8601;48.718;8.992;2023-07-22T07:26:11;17.30;99.90
16970;DHT22;8601;48.718;8.992;2023-07-22T07:28:38;17.40;99.90
16970;DHT22;8601;48.718;8.992;2023-07-22T07:31:05;17.50;99.90
16970;DHT22;8601;48.718;8.992;2023-07-22T07:33:32;17.60;99.90
16970;DHT22;8601;48.718;8.992;2023-07-22T07:35:59;17.70;99.90
16970;DHT22;8601;48.718;8.992;2023-07-22T07:38:26;17.80;99.90
16970;DHT22;8601;48.718;8.992;2023-07-22T07:40:56;17.80;99.90
16970;DHT22;8601;48.718;8.992;2023-07-22T07:43:25;18.00;99.90
16970;DHT22;8601;48.718;8.992;2023-07-22T07:46:16;18.20;99.90
16970;DHT22;8601;48.718;8.992;2023-07-22T07:48:44;18.30;99.90
16970;DHT22;8601;48.718;8.992;2023-07-22T07:51:12;18.40;99.90
16970;DHT22;8601;48.718;8.992;2023-07-22T07:53:39;18.60;99.90
16970;DHT22;8601;48.718;8.992;2023-07-22T07:56:06;18.70;99.90
16970;DHT22;8601;48.718;8.992;2023-07-22T07:58:36;18.90;99.90
16970;DHT22;8601;48.718;8.992;2023-07-22T08:01:03;19.00;99.80
16970;DHT22;8601;48.718;8.992;2023-07-22T08:03:33;19.20;97.30
16970;DHT22;8601;48.718;8.992;2023-07-22T08:06:00;19.40;98.10
16970;DHT22;8601;48.718;8.992;2023-07-22T08:08:27;19.60;97.70
16970;DHT22;8601;48.718;8.992;2023-07-22T08:10:58;19.60;93.20
16970;DHT22;8601;48.718;8.992;2023-07-22T08:13:26;19.70;92.70
16970;DHT22;8601;48.718;8.992;2023-07-22T08:15:56;19.90;92.20
16970;DHT22;8601;48.718;8.992;2023-07-22T08:18:23;19.80;90.70
16970;DHT22;8601;48.718;8.992;2023-07-22T08:20:51;19.90;90.30
16970;DHT22;8601;48.718;8.992;2023-07-22T08:23:18;20.00;89.90
16970;DHT22;8601;48.718;8.992;2023-07-22T08:25:45;20.10;86.20
16970;DHT22;8601;48.718;8.992;2023-07-22T08:28:12;20.10;84.10
16970;DHT22;8601;48.718;8.992;2023-07-22T08:30:39;20.10;79.20
16970;DHT22;8601;48.718;8.992;2023-07-22T08:33:09;20.20;82.20
16970;DHT22;8601;48.718;8.992;2023-07-22T08:35:37;20.20;81.70
16970;DHT22;8601;48.718;8.992;2023-07-22T08:38:04;20.50;81.70
16970;DHT22;8601;48.718;8.992;2023-07-22T08:40:33;20.80;79.90
16970;DHT22;8601;48.718;8.992;2023-07-22T08:43:02;20.90;77.70
16970;DHT22;8601;48.718;8.992;2023-07-22T08:45:31;21.00;77.00
16970;DHT22;8601;48.718;8.992;2023-07-22T08:48:02;21.00;72.70
16970;DHT22;8601;48.718;8.992;2023-07-22T08:50:41;20.80;68.30
16970;DHT22;8601;48.718;8.992;2023-07-22T08:53:10;20.60;69.30
16970;DHT22;8601;48.718;8.992;2023-07-22T08:55:37;20.60;69.90
16970;DHT22;8601;48.718;8.992;2023-07-22T08:58:06;20.60;69.90
16970;DHT22;8601;48.718;8.992;2023-07-22T09:00:33;20.60;69.30
16970;DHT22;8601;48.718;8.992;2023-07-22T09:03:01;20.70;69.10
16970;DHT22;8601;48.718;8.992;2023-07-22T09:05:28;20.60;73.00
16970;DHT22;8601;48.718;8.992;2023-07-22T09:07:58;20.60;70.90
16970;DHT22;8601;48.718;8.992;2023-07-22T09:10:26;20.60;70.10
16970;DHT22;8601;48.718;8.992;2023-07-22T09:12:54;20.60;70.80
16970;DHT22;8601;48.718;8.992;2023-07-22T09:15:21;20.50;72.20
16970;DHT22;8601;48.718;8.992;2023-07-22T09:17:49;20.60;70.60
16970;DHT22;8601;48.718;8.992;2023-07-22T09:20:16;20.60;70.00
16970;DHT22;8601;48.718;8.992;2023-07-22T09:22:44;20.80;74.90
16970;DHT22;8601;48.718;8.992;2023-07-22T09:25:16;21.00;70.60
16970;DHT22;8601;48.718;8.992;2023-07-22T09:27:44;20.90;69.70
16970;DHT22;8601;48.718;8.992;2023-07-22T09:30:25;21.00;70.20
16970;DHT22;8601;48.718;8.992;2023-07-22T09:32:53;21.40;68.90
16970;DHT22;8601;48.718;8.992;2023-07-22T09:35:21;21.40;68.10
16970;DHT22;8601;48.718;8.992;2023-07-22T09:37:48;21.40;67.40
16970;DHT22;8601;48.718;8.992;2023-07-22T09:40:17;21.30;67.30
16970;DHT22;8601;48.718;8.992;2023-07-22T09:42:48;21.60;69.40
16970;DHT22;8601;48.718;8.992;2023-07-22T09:45:16;21.70;66.60
16970;DHT22;8601;48.718;8.992;2023-07-22T09:47:45;21.80;63.90
16970;DHT22;8601;48.718;8.992;2023-07-22T09:50:14;21.80;66.00
16970;DHT22;8601;48.718;8.992;2023-07-22T09:52:47;21.80;63.00
16970;DHT22;8601;48.718;8.992;2023-07-22T09:55:17;21.70;63.30
16970;DHT22;8601;48.718;8.992;2023-07-22T09:57:46;21.80;65.10
16970;DHT22;8601;48.718;8.992;2023-07-22T10:00:14;21.80;65.70
16970;DHT22;8601;48.718;8.992;2023-07-22T10:02:42;21.60;64.20
16970;DHT22;8601;48.718;8.992;2023-07-22T10:05:14;21.50;66.60
16970;DHT22;8601;48.718;8.992;2023-07-22T10:07:47;21.60;64.70
16970;DHT22;8601;48.718;8.992;2023-07-22T10:10:17;21.70;66.20
16970;DHT22;8601;48.718;8.992;2023-07-22T10:12:45;21.70;65.10
16970;DHT22;8601;48.718;8.992;2023-07-22T10:15:14;21.70;62.30
16970;DHT22;8601;48.718;8.992;2023-07-22T10:17:43;21.80;63.10
16970;DHT22;8601;48.718;8.992;2023-07-22T10:20:12;22.10;65.10
16970;DHT22;8601;48.718;8.992;2023-07-22T10:22:42;22.20;64.70
16970;DHT22;8601;48.718;8.992;2023-07-22T10:25:12;22.30;63.40
16970;DHT22;8601;48.718;8.992;2023-07-22T10:27:40;22.30;62.50
16970;DHT22;8601;48.718;8.992;2023-07-22T10:30:09;22.50;60.30
16970;DHT22;8601;48.718;8.992;2023-07-22T10:32:37;22.70;59.30
16970;DHT22;8601;48.718;8.992;2023-07-22T10:35:07;22.80;58.60
16970;DHT22;8601;48.718;8.992;2023-07-22T10:37:35;22.90;61.80
16970;DHT22;8601;48.718;8.992;2023-07-22T10:40:17;23.30;60.30
16970;DHT22;8601;48.718;8.992;2023-07-22T10:42:53;23.60;59.50
16970;DHT22;8601;48.718;8.992;2023-07-22T10:45:27;23.70;59.40
16970;DHT22;8601;48.718;8.992;2023-07-22T10:48:03;23.70;58.60
16970;DHT22;8601;48.718;8.992;2023-07-22T10:50:39;23.60;60.00
16970;DHT22;8601;48.718;8.992;2023-07-22T10:53:08;23.60;59.20
16970;DHT22;8601;48.718;8.992;2023-07-22T10:56:15;23.50;58.10
16970;DHT22;8601;48.718;8.992;2023-07-22T10:59:01;23.20;59.00
16970;DHT22;8601;48.718;8.992;2023-07-22T11:01:34;22.80;58.90
16970;DHT22;8601;48.718;8.992;2023-07-22T11:04:12;22.60;61.70
16970;DHT22;8601;48.718;8.992;2023-07-22T11:06:52;22.40;60.90
16970;DHT22;8601;48.718;8.992;2023-07-22T11:09:39;22.20;63.60
16970;DHT22;8601;48.718;8.992;2023-07-22T11:12:12;22.10;63.70
16970;DHT22;8601;48.718;8.992;2023-07-22T11:14:47;22.20;64.50
16970;DHT22;8601;48.718;8.992;2023-07-22T11:17:14;22.40;64.10
16970;DHT22;8601;48.718;8.992;2023-07-22T11:19:43;23.00;64.20
16970;DHT22;8601;48.718;8.992;2023-07-22T11:22:13;23.30;60.60
16970;DHT22;8601;48.718;8.992;2023-07-22T11:24:40;23.90;62.50
16970;DHT22;8601;48.718;8.992;2023-07-22T11:27:09;24.20;60.70
16970;DHT22;8601;48.718;8.992;2023-07-22T11:29:36;24.00;60.80
16970;DHT22;8601;48.718;8.992;2023-07-22T11:32:04;23.80;60.80
16970;DHT22;8601;48.718;8.992;2023-07-22T11:34:31;23.70;60.30
16970;DHT22;8601;48.718;8.992;2023-07-22T11:36:58;23.30;60.60
16970;DHT22;8601;48.718;8.992;2023-07-22T11:39:26;23.30;62.60
16970;DHT22;8601;48.718;8.992;2023-07-22T11:41:53;23.50;60.30
16970;DHT22;8601;48.718;8.992;2023-07-22T11:44:26;23.40;57.80
16970;DHT22;8601;48.718;8.992;2023-07-22T11:46:56;23.30;60.00
16970;DHT22;8601;48.718;8.992;2023-07-22T11:49:28;23.30;59.10
16970;DHT22;8601;48.718;8.992;2023-07-22T11:51:57;23.30;59.70
16970;DHT22;8601;48.718;8.992;2023-07-22T11:54:24;23.30;62.90
16970;DHT22;8601;48.718;8.992;2023-07-22T11:56:51;23.40;59.20
16970;DHT22;8601;48.718;8.992;2023-07-22T11:59:34;23.50;59.70
16970;DHT22;8601;48.718;8.992;2023-07-22T12:02:02;23.70;61.00
16970;DHT22;8601;48.718;8.992;2023-07-22T12:04:31;23.90;62.70
16970;DHT22;8601;48.718;8.992;2023-07-22T12:06:58;24.00;55.80
16970;DHT22;8601;48.718;8.992;2023-07-22T12:09:26;23.80;56.30
16970;DHT22;8601;48.718;8.992;2023-07-22T12:11:56;23.70;58.10
16970;DHT22;8601;48.718;8.992;2023-07-22T12:14:24;23.70;57.20
16970;DHT22;8601;48.718;8.992;2023-07-22T12:16:55;23.70;57.40
16970;DHT22;8601;48.718;8.992;2023-07-22T12:19:23;24.00;57.30
16970;DHT22;8601;48.718;8.992;2023-07-22T12:21:50;24.40;54.60
16970;DHT22;8601;48.718;8.992;2023-07-22T12:24:17;24.80;53.80
16970;DHT22;8601;48.718;8.992;2023-07-22T12:26:45;25.00;53.50
16970;DHT22;8601;48.718;8.992;2023-07-22T12:29:11;25.10;53.10
16970;DHT22;8601;48.718;8.992;2023-07-22T12:31:38;24.90;53.60
16970;DHT22;8601;48.718;8.992;2023-07-22T12:34:08;24.70;54.30
16970;DHT22;8601;48.718;8.992;2023-07-22T12:36:36;24.30;53.20
16970;DHT22;8601;48.718;8.992;2023-07-22T12:39:03;24.00;54.40
16970;DHT22;8601;48.718;8.992;2023-07-22T12:41:30;23.80;55.80
16970;DHT22;8601;48.718;8.992;2023-07-22T12:43:57;23.70;54.20
16970;DHT22;8601;48.718;8.992;2023-07-22T12:46:24;24.10;55.20
16970;DHT22;8601;48.718;8.992;2023-07-22T12:48:51;24.40;54.30
16970;DHT22;8601;48.718;8.992;2023-07-22T12:51:20;24.50;53.40
16970;DHT22;8601;48.718;8.992;2023-07-22T12:53:47;24.90;52.30
16970;DHT22;8601;48.718;8.992;2023-07-22T12:56:14;24.80;52.70
16970;DHT22;8601;48.718;8.992;2023-07-22T12:58:41;24.90;54.80
16970;DHT22;8601;48.718;8.992;2023-07-22T13:01:08;24.60;51.80
16970;DHT22;8601;48.718;8.992;2023-07-22T13:03:35;24.20;53.40
16970;DHT22;8601;48.718;8.992;2023-07-22T13:06:02;24.20;54.00
16970;DHT22;8601;48.718;8.992;2023-07-22T13:08:30;24.00;52.90
16970;DHT22;8601;48.718;8.992;2023-07-22T13:10:58;24.40;54.20
16970;DHT22;8601;48.718;8.992;2023-07-22T13:13:24;24.80;53.80
16970;DHT22;8601;48.718;8.992;2023-07-22T13:15:51;24.80;52.20
16970;DHT22;8601;48.718;8.992;2023-07-22T13:18:18;25.00;52.60
16970;DHT22;8601;48.718;8.992;2023-07-22T13:20:46;25.00;51.10
16970;DHT22;8601;48.718;8.992;2023-07-22T13:23:12;24.90;51.90
16970;DHT22;8601;48.718;8.992;2023-07-22T13:25:41;24.80;53.60
16970;DHT22;8601;48.718;8.992;2023-07-22T13:28:08;24.60;52.40
16970;DHT22;8601;48.718;8.992;2023-07-22T13:30:35;24.20;53.20
16970;DHT22;8601;48.718;8.992;2023-07-22T13:33:02;24.10;53.70
16970;DHT22;8601;48.718;8.992;2023-07-22T13:35:30;24.00;54.30
16970;DHT22;8601;48.718;8.992;2023-07-22T13:37:57;24.00;55.20
16970;DHT22;8601;48.718;8.992;2023-07-22T13:40:23;23.90;54.70
16970;DHT22;8601;48.718;8.992;2023-07-22T13:42:52;23.90;55.30
16970;DHT22;8601;48.718;8.992;2023-07-22T13:45:19;24.10;54.40
16970;DHT22;8601;48.718;8.992;2023-07-22T13:47:46;24.40;54.30
16970;DHT22;8601;48.718;8.992;2023-07-22T13:50:13;24.50;53.90
16970;DHT22;8601;48.718;8.992;2023-07-22T13:52:40;24.30;53.20
16970;DHT22;8601;48.718;8.992;2023-07-22T13:55:09;24.20;54.40
16970;DHT22;8601;48.718;8.992;2023-07-22T13:57:36;24.20;54.30
16970;DHT22;8601;48.718;8.992;2023-07-22T14:00:06;24.40;54.10
16970;DHT22;8601;48.718;8.992;2023-07-22T14:02:34;24.50;54.30
16970;DHT22;8601;48.718;8.992;2023-07-22T14:05:01;24.50;54.20
16970;DHT22;8601;48.718;8.992;2023-07-22T14:07:28;24.30;54.20
16970;DHT22;8601;48.718;8.992;2023-07-22T14:09:55;24.10;54.30
16970;DHT22;8601;48.718;8.992;2023-07-22T14:12:22;24.00;53.80
16970;DHT22;8601;48.718;8.992;2023-07-22T14:14:49;24.10;54.50
16970;DHT22;8601;48.718;8.992;2023-07-22T14:17:17;24.30;54.20
16970;DHT22;8601;48.718;8.992;2023-07-22T14:19:44;24.30;53.60
16970;DHT22;8601;48.718;8.992;2023-07-22T14:22:11;24.20;54.10
16970;DHT22;8601;48.718;8.992;2023-07-22T14:24:38;24.20;54.50
16970;DHT22;8601;48.718;8.992;2023-07-22T14:27:05;24.20;54.50
16970;DHT22;8601;48.718;8.992;2023-07-22T14:29:33;24.10;53.30
16970;DHT22;8601;48.718;8.992;2023-07-22T14:32:00;24.40;53.20
16970;DHT22;8601;48.718;8.992;2023-07-22T14:34:28;24.60;53.40
16970;DHT22;8601;48.718;8.992;2023-07-22T14:36:55;24.80;53.90
16970;DHT22;8601;48.718;8.992;2023-07-22T14:39:22;24.70;53.40
16970;DHT22;8601;48.718;8.992;2023-07-22T14:41:49;24.40;52.00
16970;DHT22;8601;48.718;8.992;2023-07-22T14:44:16;24.20;53.00
16970;DHT22;8601;48.718;8.992;2023-07-22T14:46:43;24.20;53.30
16970;DHT22;8601;48.718;8.992;2023-07-22T14:49:10;24.20;53.10
16970;DHT22;8601;48.718;8.992;2023-07-22T14:51:38;24.40;53.70
16970;DHT22;8601;48.718;8.992;2023-07-22T14:54:05;24.40;51.90
16970;DHT22;8601;48.718;8.992;2023-07-22T14:56:32;24.20;51.80
16970;DHT22;8601;48.718;8.992;2023-07-22T14:58:59;24.20;52.40
16970;DHT22;8601;48.718;8.992;2023-07-22T15:01:37;24.00;53.40
16970;DHT22;8601;48.718;8.992;2023-07-22T15:04:05;23.90;52.30
16970;DHT22;8601;48.718;8.992;2023-07-22T15:06:32;23.70;53.00
16970;DHT22;8601;48.718;8.992;2023-07-22T15:09:01;23.70;52.60
16970;DHT22;8601;48.718;8.992;2023-07-22T15:11:32;23.60;53.20
16970;DHT22;8601;48.718;8.992;2023-07-22T15:13:58;23.60;53.50
16970;DHT22;8601;48.718;8.992;2023-07-22T15:16:25;23.70;53.40
16970;DHT22;8601;48.718;8.992;2023-07-22T15:18:52;23.70;53.40
16970;DHT22;8601;48.718;8.992;2023-07-22T15:21:19;23.80;53.20
16970;DHT22;8601;48.718;8.992;2023-07-22T15:23:47;23.80;53.00
16970;DHT22;8601;48.718;8.992;2023-07-22T15:26:15;23.90;54.00
16970;DHT22;8601;48.718;8.992;2023-07-22T15:28:42;23.80;53.30
16970;DHT22;8601;48.718;8.992;2023-07-22T15:31:09;23.80;53.20
16970;DHT22;8601;48.718;8.992;2023-07-22T15:33:36;23.70;53.80
16970;DHT22;8601;48.718;8.992;2023-07-22T15:36:09;23.70;53.40
16970;DHT22;8601;48.718;8.992;2023-07-22T15:38:36;23.70;53.40
16970;DHT22;8601;48.718;8.992;2023-07-22T15:41:03;23.60;53.10
16970;DHT22;8601;48.718;8.992;2023-07-22T15:43:31;23.60;52.80
16970;DHT22;8601;48.718;8.992;2023-07-22T15:45:58;23.60;53.70
16970;DHT22;8601;48.718;8.992;2023-07-22T15:48:26;23.60;55.00
16970;DHT22;8601;48.718;8.992;2023-07-22T15:50:53;23.60;53.50